Egan, Illinois
Current Conditions -  °F | °C
As of 10:20 AM on Thursday 23 Oct 2014 (Local Time) from KFEP Reporting Station
Clear Clear  
Wind Chill: 43°   Ceiling: Unl
Heat Index: 48°   Visibility: 10mi
Dew Point: 40°   Wind: 10mph
Humidity: 74%   Direction: 170°S
Pressure: 30.17"   Gusts: NA
Location:  42.1509°N, 89.4005°W
Report Text: KFEP 231520Z AUTO 17009KT 10SM CLR 09/04 A3017 RMK AO2 T00890044
Loading
Personal Weather Stations






























Interactive Weather Map
Tropical Storm Tracking
New forecast layout! Learn more

10-Day Weather Forecast

Advertisements
Track Severe Weather on mobile